Flight Track Log - Related Links

Times and Time Zones

All times are in EDT time to prevent confusion due to time zone crossing. See the USC110 flight status page for this flight to view local times or setup timezone preferences in your user account.

Time Position Orientation Groundspeed Altitude Reporting Facility
EDT Latitude Longitude Course Direction KTS MPH feet Rate Location/Type
Fri 11:12:26 PM 41.5356 -81.7039 337° Northwest 88 101 2,400  Level Cleveland Center
Fri 11:13:26 PM 41.5564 -81.7097 348° North 82 94 3,800 1,339 Climbing Cleveland Center
Fri 11:14:27 PM 41.5664 -81.7458 290° West 96 110 5,100 1,240 Climbing Cleveland Center
Fri 11:15:27 PM 41.5764 -81.7739 295° West 90 104 6,300 1,240 Climbing Cleveland Center
Fri 11:16:28 PM 41.5867 -81.8019 296° West 88 101 7,600 836 Climbing Cleveland Center
Fri 11:17:29 PM 41.6028 -81.8411 299° West 135 155 8,000 198 Climbing Cleveland Center
Fri 11:18:29 PM 41.6231 -81.8914 298° West 161 185 8,000  Level Cleveland Center
Fri 11:19:30 PM 41.6414 -81.9447 295° West 156 180 8,000 689 Level Cleveland Center
Fri 11:20:31 PM 41.6594 -81.9894 298° West 98 113 9,400 992 Climbing Cleveland Center
Fri 11:21:31 PM 41.6694 -82.0203 293° West 106 122 10,000 298 Climbing Cleveland Center
Fri 11:22:32 PM 41.6917 -82.0708 300° West 174 200 10,000  Level Cleveland Center
Fri 11:23:32 PM 41.7119 -82.1242 297° West 162 186 10,000  Level Cleveland Center
Fri 11:25:34 PM 41.7561 -82.2364 298° West 166 191 10,000  Level Cleveland Center
Fri 11:27:00 PM 41.7784 -82.3092 292° West  Level FlightAware Approximate
Fri 11:28:09 PM 41.8083 -82.3717 292° West 159 183 10,000  Level Cleveland Center
Fri 11:29:10 PM 41.8264 -82.4250 294° West 160 184 10,000  Level Cleveland Center
Fri 11:29:32 PM 41.8322 -82.4392 299° West 156 180 10,000  Level Cleveland Center
Fri 11:30:10 PM 41.8483 -82.4814 297° West 159 183 10,000  Level Cleveland Center
Fri 11:31:11 PM 41.8683 -82.5350 297° West 157 181 10,000  Level Cleveland Center
Fri 11:31:32 PM 41.8722 -82.5436 301° West 156 180 10,000  Level Cleveland Center
Fri 11:32:11 PM 41.8861 -82.5886 293° West 159 183 10,000  Level Cleveland Center
Fri 11:32:38 PM 41.8961 -82.6111 301° West 160 184 10,000  Level Cleveland Center
Fri 11:33:12 PM 41.9081 -82.6394 300° West 159 183 10,000  Level Cleveland Center
Fri 11:34:13 PM 41.9281 -82.6931 297° West 161 185 10,000  Level Cleveland Center
Fri 11:34:32 PM 41.9319 -82.7044 295° West 156 180 10,000  Level Cleveland Center
Fri 11:35:13 PM 41.9500 -82.7469 300° West 159 183 10,000  Level Cleveland Center
Fri 11:35:32 PM 41.9519 -82.7581 283° West 156 180 10,000  Level Cleveland Center
Fri 11:36:14 PM 41.9697 -82.7978 301° West 161 185 10,000  Level Cleveland Center
Fri 11:36:32 PM 41.9717 -82.8092 283° West 156 180 10,000  Level Cleveland Center
Fri 11:37:14 PM 41.9833 -82.8569 288° West 165 190 10,000  Level Cleveland Center
Fri 11:37:41 PM 41.9872 -82.8739 287° West 154 177 10,000  Level Cleveland Center
Fri 11:38:03 PM 41.9906 -82.9047 278° West 158 182 10,000  Level Cleveland Center
Fri 11:38:41 PM 41.9964 -82.9300 287° West 162 186 10,000  Level Cleveland Center
Fri 11:39:16 PM 42.0039 -82.9750 283° West 160 184 10,000  Level Cleveland Center
Fri 11:39:42 PM 42.0056 -82.9919 278° West 163 188 10,000  Level Cleveland Center
Fri 11:40:10 PM 42.0111 -83.0283 282° West 159 183 10,000  Level Cleveland Center
Fri 11:40:43 PM 42.0167 -83.0511 288° West 161 185 10,000  Level Cleveland Center
Fri 11:41:11 PM 42.0222 -83.0875 282° West 163 188 10,000 -300 Level Cleveland Center
Fri 11:41:43 PM 42.0239 -83.1100 276° West 161 185 9,700 -1,111 Descending Cleveland Center
Fri 11:42:05 PM 42.0336 -83.1439 291° West 178 205 9,000 -1,279 Descending Cleveland Center
Fri 11:42:44 PM 42.0369 -83.1778 278° West 179 206 8,400 -1,180 Descending Cleveland Center
Fri 11:43:06 PM 42.0425 -83.2114 283° West 186 214 7,800 -1,300 Descending Cleveland Center
Fri 11:43:44 PM 42.0458 -83.2453 278° West 188 216 7,100 -1,377 Descending Cleveland Center
Fri 11:44:07 PM 42.0514 -83.2789 283° West 179 206 6,400 -1,281 Descending Cleveland Center
Fri 11:45:13 PM 42.0642 -83.3494 284° West 178 205 5,200 -604 Descending Cleveland Center
Fri 11:46:26 PM 42.0747 -83.4311 280° West 172 198 5,000 -422 Descending Cleveland Center
Fri 11:47:21 PM 42.0986 -83.4797 304° West 174 200 4,300 -893 Descending Cleveland Center
Fri 11:48:27 PM 42.1325 -83.5344 310° West 178 205 3,200 -992 Descending Cleveland Center
Fri 11:49:22 PM 42.1717 -83.5586 335° Northwest 163 188 2,300 -982 Descending Cleveland Center
Fri 11:51:00 PM 42.2333 -83.5167 North  Level FlightAware Approximate
Fri 11:58:00 PM 42.2393 -83.5310 North  Level Estimated
Fri 11:59:00 PM 42.2393 -83.5310 North  Level Estimated

Login

Don't have an account? Register now (free) for customized features, flight alerts, and more!